createdAt,value
2023-02-23T00:02:08.569Z,100.00
2023-02-23T00:04:36.775Z,100.00
2023-02-23T00:07:06.384Z,100.00
2023-02-23T00:09:36.457Z,100.00
2023-02-23T00:12:09.745Z,100.00
2023-02-23T00:14:38.289Z,100.00
2023-02-23T00:17:14.150Z,100.00
2023-02-23T00:19:43.515Z,100.00
2023-02-23T00:22:11.965Z,100.00
2023-02-23T00:24:40.620Z,100.00
2023-02-23T00:27:07.924Z,100.00
2023-02-23T00:29:39.633Z,100.00
2023-02-23T00:32:07.451Z,100.00
2023-02-23T00:34:36.668Z,100.00
2023-02-23T00:37:04.377Z,100.00
2023-02-23T00:39:31.690Z,100.00
2023-02-23T00:42:02.840Z,100.00
2023-02-23T00:44:32.414Z,100.00
2023-02-23T00:47:03.153Z,100.00
2023-02-23T00:49:30.411Z,100.00
2023-02-23T00:51:57.665Z,100.00
2023-02-23T00:54:25.446Z,100.00
2023-02-23T00:56:52.772Z,100.00
2023-02-23T00:59:20.633Z,100.00
2023-02-23T01:01:48.210Z,100.00
2023-02-23T01:04:16.687Z,100.00
2023-02-23T01:06:43.961Z,100.00
2023-02-23T01:09:14.606Z,100.00
2023-02-23T01:11:42.354Z,100.00
2023-02-23T01:14:10.882Z,100.00
2023-02-23T01:16:39.056Z,100.00
2023-02-23T01:19:07.045Z,100.00
2023-02-23T01:21:37.434Z,100.00
2023-02-23T01:24:05.951Z,100.00
2023-02-23T01:26:38.929Z,100.00
2023-02-23T01:29:13.935Z,100.00
2023-02-23T01:31:44.095Z,100.00
2023-02-23T01:34:13.572Z,100.00
2023-02-23T01:36:43.670Z,100.00
2023-02-23T01:39:17.609Z,100.00
2023-02-23T01:41:45.340Z,100.00
2023-02-23T01:44:12.590Z,100.00
2023-02-23T01:46:45.229Z,100.00
2023-02-23T01:49:25.687Z,100.00
2023-02-23T01:52:11.371Z,100.00
2023-02-23T01:54:58.914Z,100.00
2023-02-23T01:57:27.872Z,100.00
2023-02-23T01:59:55.770Z,100.00
2023-02-23T02:02:33.772Z,100.00
2023-02-23T02:05:05.346Z,100.00
2023-02-23T02:07:35.172Z,100.00
2023-02-23T02:10:12.211Z,100.00
2023-02-23T02:12:53.772Z,100.00
2023-02-23T02:15:26.025Z,100.00
2023-02-23T02:18:30.738Z,100.00
2023-02-23T02:21:04.680Z,100.00
2023-02-23T02:23:51.757Z,100.00
2023-02-23T02:26:31.510Z,100.00
2023-02-23T02:29:26.285Z,100.00
2023-02-23T02:32:29.298Z,100.00
2023-02-23T02:35:08.693Z,100.00
2023-02-23T02:37:45.052Z,100.00
2023-02-23T02:40:53.421Z,100.00
2023-02-23T02:43:50.973Z,100.00
2023-02-23T02:46:27.402Z,100.00
2023-02-23T02:49:03.326Z,100.00
2023-02-23T02:51:39.657Z,100.00
2023-02-23T02:54:28.934Z,100.00
2023-02-23T02:57:00.416Z,100.00
2023-02-23T02:59:46.659Z,100.00
2023-02-23T03:02:37.033Z,100.00
2023-02-23T03:05:33.904Z,100.00
2023-02-23T03:08:27.158Z,100.00
2023-02-23T03:11:39.261Z,100.00
2023-02-23T03:14:56.462Z,100.00
2023-02-23T03:18:05.401Z,100.00
2023-02-23T03:20:51.239Z,100.00
2023-02-23T03:23:46.087Z,100.00
2023-02-23T03:26:47.339Z,100.00
2023-02-23T03:30:10.936Z,100.00
2023-02-23T03:33:11.099Z,100.00
2023-02-23T03:36:10.310Z,100.00
2023-02-23T03:39:34.829Z,100.00
2023-02-23T03:42:25.773Z,100.00
2023-02-23T03:45:14.201Z,100.00
2023-02-23T03:48:02.188Z,100.00
2023-02-23T03:50:56.207Z,100.00
2023-02-23T03:53:49.601Z,100.00
2023-02-23T03:56:39.576Z,100.00
2023-02-23T03:59:27.786Z,100.00
2023-02-23T04:02:15.375Z,100.00
2023-02-23T04:05:04.895Z,100.00
2023-02-23T04:07:53.085Z,100.00
2023-02-23T04:10:41.319Z,100.00
2023-02-23T04:13:14.588Z,100.00
2023-02-23T04:15:55.659Z,100.00
2023-02-23T04:18:26.248Z,100.00
2023-02-23T04:20:54.686Z,100.00
2023-02-23T04:23:23.276Z,100.00
2023-02-23T04:25:52.201Z,100.00
2023-02-23T04:28:21.112Z,100.00
2023-02-23T04:30:48.461Z,100.00
2023-02-23T04:33:15.960Z,100.00
2023-02-23T04:35:43.206Z,100.00
2023-02-23T04:38:10.706Z,100.00
2023-02-23T04:40:37.973Z,100.00
2023-02-23T04:43:05.275Z,100.00
2023-02-23T04:45:32.546Z,100.00
2023-02-23T04:47:59.834Z,100.00
2023-02-23T04:50:28.206Z,100.00
2023-02-23T04:52:55.429Z,100.00
2023-02-23T04:55:24.778Z,100.00
2023-02-23T04:57:56.680Z,100.00
2023-02-23T05:00:26.996Z,100.00
2023-02-23T05:02:54.255Z,100.00
2023-02-23T05:05:21.580Z,100.00
2023-02-23T05:07:48.844Z,100.00
2023-02-23T05:10:16.150Z,100.00
2023-02-23T05:12:43.492Z,100.00
2023-02-23T05:15:11.116Z,100.00
2023-02-23T05:17:41.945Z,100.00
2023-02-23T05:20:11.210Z,100.00
2023-02-23T05:22:41.663Z,100.00
2023-02-23T05:25:10.144Z,100.00
2023-02-23T05:27:38.401Z,100.00
2023-02-23T05:30:10.576Z,100.00
2023-02-23T05:32:40.499Z,100.00
2023-02-23T05:35:09.000Z,100.00
2023-02-23T05:37:36.740Z,100.00
2023-02-23T05:40:07.339Z,100.00
2023-02-23T05:42:34.712Z,100.00
2023-02-23T05:45:01.981Z,100.00
2023-02-23T05:47:32.108Z,100.00
2023-02-23T05:49:59.576Z,100.00
2023-02-23T05:52:27.108Z,100.00
2023-02-23T05:54:55.152Z,100.00
2023-02-23T05:57:22.466Z,100.00
2023-02-23T05:59:49.792Z,100.00
2023-02-23T06:02:17.233Z,100.00
2023-02-23T06:04:44.879Z,100.00
2023-02-23T06:07:12.713Z,100.00
2023-02-23T06:09:42.377Z,100.00
2023-02-23T06:12:10.803Z,100.00
2023-02-23T06:14:38.070Z,100.00
2023-02-23T06:17:05.781Z,100.00
2023-02-23T06:19:33.451Z,100.00
2023-02-23T06:22:00.703Z,100.00
2023-02-23T06:24:28.341Z,100.00
2023-02-23T06:26:55.986Z,100.00
2023-02-23T06:29:23.385Z,100.00
2023-02-23T06:31:50.704Z,100.00
2023-02-23T06:34:18.832Z,100.00
2023-02-23T06:36:47.302Z,100.00
2023-02-23T06:39:14.545Z,100.00
2023-02-23T06:41:42.078Z,100.00
2023-02-23T06:44:09.447Z,100.00
2023-02-23T06:46:37.993Z,100.00
2023-02-23T06:49:05.424Z,100.00
2023-02-23T06:51:33.086Z,100.00
2023-02-23T06:54:00.477Z,100.00
2023-02-23T06:56:27.764Z,100.00
2023-02-23T06:58:55.074Z,100.00
2023-02-23T07:01:22.334Z,100.00
2023-02-23T07:03:49.665Z,100.00
2023-02-23T07:06:16.954Z,100.00
2023-02-23T07:08:44.824Z,100.00
2023-02-23T07:11:16.081Z,100.00
2023-02-23T07:13:43.401Z,100.00
2023-02-23T07:16:11.131Z,100.00
2023-02-23T07:18:38.573Z,100.00
2023-02-23T07:21:06.252Z,100.00
2023-02-23T07:23:36.348Z,100.00
2023-02-23T07:26:03.668Z,100.00
2023-02-23T07:28:31.050Z,100.00
2023-02-23T07:30:59.262Z,100.00
2023-02-23T07:33:26.916Z,100.00
2023-02-23T07:35:54.205Z,100.00
2023-02-23T07:38:21.526Z,100.00
2023-02-23T07:40:50.751Z,100.00
2023-02-23T07:43:18.417Z,100.00
2023-02-23T07:45:46.679Z,100.00
2023-02-23T07:48:14.676Z,100.00
2023-02-23T07:50:42.693Z,100.00
2023-02-23T07:53:13.995Z,100.00
2023-02-23T07:55:41.315Z,100.00
2023-02-23T07:58:09.031Z,100.00
2023-02-23T08:00:38.862Z,100.00
2023-02-23T08:03:07.216Z,100.00
2023-02-23T08:05:34.455Z,100.00
2023-02-23T08:08:01.717Z,100.00
2023-02-23T08:10:28.985Z,100.00
2023-02-23T08:12:57.975Z,100.00
2023-02-23T08:15:25.419Z,100.00
2023-02-23T08:17:52.753Z,100.00
2023-02-23T08:20:20.158Z,100.00
2023-02-23T08:22:50.008Z,100.00
2023-02-23T08:25:18.144Z,100.00
2023-02-23T08:27:46.484Z,100.00
2023-02-23T08:30:14.635Z,100.00
2023-02-23T08:32:42.931Z,100.00
2023-02-23T08:35:10.659Z,100.00
2023-02-23T08:37:37.933Z,100.00
2023-02-23T08:40:07.708Z,100.00
2023-02-23T08:42:35.207Z,100.00
2023-02-23T08:45:02.674Z,100.00
2023-02-23T08:47:30.031Z,100.00
2023-02-23T08:49:57.334Z,100.00
2023-02-23T08:52:25.400Z,100.00
2023-02-23T08:54:52.701Z,100.00
2023-02-23T08:57:19.968Z,100.00
2023-02-23T08:59:50.234Z,100.00
2023-02-23T09:02:17.833Z,100.00
2023-02-23T09:04:45.223Z,100.00
2023-02-23T09:07:17.708Z,100.00
2023-02-23T09:09:45.019Z,100.00
2023-02-23T09:12:12.253Z,100.00
2023-02-23T09:14:40.428Z,100.00
2023-02-23T09:17:07.737Z,100.00
2023-02-23T09:19:35.038Z,100.00
2023-02-23T09:22:02.353Z,100.00
2023-02-23T09:24:29.628Z,100.00
2023-02-23T09:26:56.859Z,100.00
2023-02-23T09:29:24.477Z,100.00
2023-02-23T09:31:58.306Z,100.00
2023-02-23T09:34:26.214Z,100.00
2023-02-23T09:36:55.689Z,100.00
2023-02-23T09:39:36.937Z,100.00
2023-02-23T09:42:16.496Z,100.00
2023-02-23T09:44:46.668Z,100.00
2023-02-23T09:47:30.587Z,100.00
2023-02-23T09:50:00.347Z,100.00
2023-02-23T09:52:36.712Z,100.00
2023-02-23T09:55:04.744Z,100.00
2023-02-23T09:57:43.731Z,100.00
2023-02-23T10:00:27.833Z,100.00
2023-02-23T10:03:39.870Z,100.00
2023-02-23T10:06:11.311Z,100.00
2023-02-23T10:08:41.428Z,100.00
2023-02-23T10:11:23.791Z,100.00
2023-02-23T10:14:09.968Z,100.00
2023-02-23T10:17:01.759Z,100.00
2023-02-23T10:19:53.355Z,100.00
2023-02-23T10:22:21.219Z,100.00
2023-02-23T10:24:56.861Z,100.00
2023-02-23T10:27:30.364Z,100.00
2023-02-23T10:30:02.015Z,100.00
2023-02-23T10:32:43.714Z,100.00
2023-02-23T10:35:16.835Z,100.00
2023-02-23T10:37:45.203Z,100.00
2023-02-23T10:40:23.394Z,100.00
2023-02-23T10:42:52.214Z,100.00
2023-02-23T10:45:24.721Z,100.00
2023-02-23T10:47:54.332Z,100.00
2023-02-23T10:50:22.965Z,100.00
2023-02-23T10:52:55.050Z,100.00
2023-02-23T10:55:27.505Z,100.00
2023-02-23T10:58:17.067Z,100.00
2023-02-23T11:00:56.889Z,100.00
2023-02-23T11:03:24.486Z,100.00
2023-02-23T11:05:53.658Z,100.00
2023-02-23T11:08:23.992Z,100.00
2023-02-23T11:10:59.293Z,100.00
2023-02-23T11:13:29.104Z,100.00
2023-02-23T11:16:17.032Z,100.00
2023-02-23T11:18:56.520Z,100.00
2023-02-23T11:21:33.808Z,100.00
2023-02-23T11:24:16.753Z,100.00
2023-02-23T11:26:45.963Z,100.00
2023-02-23T11:29:27.120Z,100.00
2023-02-23T11:31:58.396Z,100.00
2023-02-23T11:34:32.290Z,100.00
2023-02-23T11:37:20.128Z,100.00
2023-02-23T11:39:55.439Z,100.00
2023-02-23T11:42:25.469Z,100.00
2023-02-23T11:45:02.705Z,100.00
2023-02-23T11:47:31.913Z,100.00
2023-02-23T11:50:03.320Z,100.00
2023-02-23T11:52:31.347Z,100.00
2023-02-23T11:55:02.906Z,99.74
2023-02-23T11:57:35.088Z,100.00
2023-02-23T12:00:11.181Z,100.00
2023-02-23T12:03:06.786Z,100.00
2023-02-23T12:05:34.239Z,100.00
2023-02-23T12:08:17.341Z,100.00
2023-02-23T12:10:51.767Z,100.00
2023-02-23T12:13:32.730Z,100.00
2023-02-23T12:16:06.180Z,99.01
2023-02-23T12:18:47.269Z,98.31
2023-02-23T12:21:29.608Z,96.72
2023-02-23T12:24:18.045Z,96.53
2023-02-23T12:26:54.956Z,96.90
2023-02-23T12:30:13.505Z,95.64
2023-02-23T12:32:49.170Z,96.30
2023-02-23T12:35:24.305Z,95.48
2023-02-23T12:37:55.635Z,93.98
2023-02-23T12:40:30.103Z,94.50
2023-02-23T12:43:30.502Z,94.35
2023-02-23T12:46:15.983Z,92.36
2023-02-23T12:49:22.216Z,91.24
2023-02-23T12:51:53.281Z,90.31
2023-02-23T12:54:20.652Z,91.10
2023-02-23T12:56:54.568Z,92.59
2023-02-23T12:59:46.484Z,89.67
2023-02-23T13:02:36.942Z,90.40
2023-02-23T13:05:22.603Z,92.58
2023-02-23T13:08:01.919Z,93.31
2023-02-23T13:10:41.469Z,94.59
2023-02-23T13:13:43.796Z,93.86
2023-02-23T13:16:14.000Z,92.11
2023-02-23T13:18:59.563Z,92.99
2023-02-23T13:21:28.674Z,93.08
2023-02-23T13:24:01.339Z,93.19
2023-02-23T13:26:40.628Z,92.18
2023-02-23T13:29:23.077Z,91.25
2023-02-23T13:31:50.957Z,90.29
2023-02-23T13:34:27.854Z,89.25
2023-02-23T13:36:56.234Z,90.44
2023-02-23T13:39:55.651Z,90.71
2023-02-23T13:43:01.068Z,90.71
2023-02-23T13:45:56.329Z,91.35
2023-02-23T13:48:47.303Z,90.85
2023-02-23T13:51:39.675Z,92.07
2023-02-23T13:54:13.133Z,91.84
2023-02-23T13:56:48.522Z,92.09
2023-02-23T13:59:26.281Z,94.53
2023-02-23T14:01:56.953Z,95.90
2023-02-23T14:04:25.867Z,94.93
2023-02-23T14:07:03.776Z,94.82
2023-02-23T14:09:36.634Z,94.52
2023-02-23T14:12:19.288Z,95.48
2023-02-23T14:14:46.997Z,95.18
2023-02-23T14:17:14.138Z,95.71
2023-02-23T14:20:00.364Z,96.42
2023-02-23T14:22:30.065Z,95.16
2023-02-23T14:25:34.627Z,94.43
2023-02-23T14:28:21.885Z,94.39
2023-02-23T14:31:11.461Z,94.79
2023-02-23T14:33:41.729Z,93.36
2023-02-23T14:36:23.899Z,94.06
2023-02-23T14:39:01.371Z,93.80
2023-02-23T14:41:36.653Z,93.52
2023-02-23T14:44:28.437Z,93.83
2023-02-23T14:47:17.711Z,94.30
2023-02-23T14:49:49.040Z,94.11
2023-02-23T14:52:29.777Z,94.84
2023-02-23T14:55:11.939Z,95.06
2023-02-23T14:57:42.708Z,94.76
2023-02-23T15:00:23.032Z,95.58
2023-02-23T15:03:12.835Z,95.47
2023-02-23T15:06:06.270Z,96.23
2023-02-23T15:08:38.596Z,95.65
2023-02-23T15:11:14.434Z,95.86
2023-02-23T15:13:50.347Z,95.78
2023-02-23T15:16:31.783Z,95.50
2023-02-23T15:19:03.078Z,96.03
2023-02-23T15:21:33.664Z,96.71
2023-02-23T15:24:11.581Z,96.58
2023-02-23T15:26:40.769Z,95.70
2023-02-23T15:29:10.798Z,95.85
2023-02-23T15:31:40.963Z,95.71
2023-02-23T15:34:11.849Z,96.83
2023-02-23T15:36:41.301Z,97.81
2023-02-23T15:39:17.382Z,96.83
2023-02-23T15:41:48.417Z,97.51
2023-02-23T15:44:27.532Z,97.52
2023-02-23T15:47:04.622Z,99.01
2023-02-23T15:49:35.911Z,100.00
2023-02-23T15:52:09.513Z,100.00
2023-02-23T15:54:39.014Z,100.00
2023-02-23T15:57:15.674Z,100.00
2023-02-23T15:59:49.296Z,100.00
2023-02-23T16:02:19.526Z,100.00
2023-02-23T16:04:52.751Z,99.54
2023-02-23T16:07:26.921Z,99.89
2023-02-23T16:10:20.859Z,99.89
2023-02-23T16:12:52.825Z,100.00
2023-02-23T16:15:23.042Z,100.00
2023-02-23T16:17:59.576Z,100.00
2023-02-23T16:20:26.786Z,100.00
2023-02-23T16:22:54.930Z,100.00
2023-02-23T16:25:26.690Z,100.00
2023-02-23T16:28:04.765Z,100.00
2023-02-23T16:30:32.255Z,100.00
2023-02-23T16:33:29.774Z,100.00
2023-02-23T16:36:15.356Z,100.00
2023-02-23T16:38:57.828Z,100.00
2023-02-23T16:41:27.890Z,100.00
2023-02-23T16:43:57.958Z,100.00
2023-02-23T16:46:30.427Z,100.00
2023-02-23T16:49:05.210Z,100.00
2023-02-23T16:51:34.667Z,100.00
2023-02-23T16:54:04.053Z,100.00
2023-02-23T16:56:31.943Z,100.00
2023-02-23T16:59:02.733Z,100.00
2023-02-23T17:01:30.086Z,100.00
2023-02-23T17:03:59.091Z,100.00
2023-02-23T17:06:26.402Z,100.00
2023-02-23T17:08:58.491Z,100.00
2023-02-23T17:11:26.895Z,100.00
2023-02-23T17:13:54.207Z,100.00
2023-02-23T17:16:21.772Z,100.00
2023-02-23T17:18:49.370Z,100.00
2023-02-23T17:21:23.515Z,100.00
2023-02-23T17:23:52.556Z,100.00
2023-02-23T17:26:24.705Z,100.00
2023-02-23T17:28:53.866Z,100.00
2023-02-23T17:31:23.556Z,100.00
2023-02-23T17:33:53.683Z,100.00
2023-02-23T17:36:21.296Z,100.00
2023-02-23T17:38:48.679Z,100.00
2023-02-23T17:41:18.541Z,100.00
2023-02-23T17:43:46.038Z,100.00
2023-02-23T17:46:13.825Z,100.00
2023-02-23T17:48:44.598Z,100.00
2023-02-23T17:51:13.229Z,100.00
2023-02-23T17:53:40.693Z,100.00
2023-02-23T17:56:09.396Z,100.00
2023-02-23T17:58:38.054Z,100.00
2023-02-23T18:01:07.145Z,100.00
2023-02-23T18:03:37.330Z,100.00
2023-02-23T18:06:06.359Z,100.00
2023-02-23T18:08:34.432Z,100.00
2023-02-23T18:11:02.482Z,100.00
2023-02-23T18:13:31.213Z,100.00
2023-02-23T18:16:04.184Z,100.00
2023-02-23T18:18:32.198Z,100.00
2023-02-23T18:21:00.564Z,100.00
2023-02-23T18:23:32.447Z,100.00
2023-02-23T18:26:09.094Z,100.00
2023-02-23T18:28:37.496Z,100.00
2023-02-23T18:31:05.306Z,100.00
2023-02-23T18:33:35.917Z,100.00
2023-02-23T18:36:04.187Z,100.00
2023-02-23T18:38:31.478Z,100.00
2023-02-23T18:40:58.822Z,100.00
2023-02-23T18:43:27.353Z,100.00
2023-02-23T18:45:56.047Z,100.00
2023-02-23T18:48:23.549Z,100.00
2023-02-23T18:50:56.482Z,100.00
2023-02-23T18:53:23.833Z,100.00
2023-02-23T18:55:51.220Z,100.00
2023-02-23T18:58:19.785Z,100.00
2023-02-23T19:00:47.673Z,100.00
2023-02-23T19:03:15.009Z,100.00
2023-02-23T19:05:53.051Z,100.00
2023-02-23T19:08:20.890Z,100.00
2023-02-23T19:10:49.625Z,100.00
2023-02-23T19:13:22.191Z,100.00
2023-02-23T19:15:50.109Z,100.00
2023-02-23T19:18:17.429Z,100.00
2023-02-23T19:20:44.808Z,100.00
2023-02-23T19:23:13.187Z,100.00
2023-02-23T19:25:40.464Z,100.00
2023-02-23T19:28:10.561Z,100.00
2023-02-23T19:30:39.986Z,100.00
2023-02-23T19:33:08.206Z,100.00
2023-02-23T19:35:39.413Z,100.00
2023-02-23T19:38:11.044Z,100.00
2023-02-23T19:40:42.604Z,100.00
2023-02-23T19:43:11.821Z,100.00
2023-02-23T19:45:43.208Z,100.00
2023-02-23T19:48:10.611Z,100.00
2023-02-23T19:50:37.917Z,100.00
2023-02-23T19:53:05.180Z,100.00
2023-02-23T19:55:32.542Z,100.00
2023-02-23T19:57:59.786Z,100.00
2023-02-23T20:00:27.017Z,100.00
2023-02-23T20:02:56.981Z,100.00
2023-02-23T20:05:25.575Z,100.00
2023-02-23T20:07:53.068Z,100.00
2023-02-23T20:10:25.668Z,100.00
2023-02-23T20:12:53.416Z,100.00
2023-02-23T20:15:23.894Z,100.00
2023-02-23T20:17:51.616Z,100.00
2023-02-23T20:20:19.704Z,100.00
2023-02-23T20:22:52.113Z,100.00
2023-02-23T20:25:21.301Z,100.00
2023-02-23T20:27:51.219Z,100.00
2023-02-23T20:30:19.129Z,100.00
2023-02-23T20:32:47.993Z,100.00
2023-02-23T20:35:18.409Z,100.00
2023-02-23T20:37:45.683Z,100.00
2023-02-23T20:40:17.897Z,100.00
2023-02-23T20:42:47.897Z,100.00
2023-02-23T20:45:21.168Z,100.00
2023-02-23T20:47:54.201Z,100.00
2023-02-23T20:50:25.450Z,100.00
2023-02-23T20:52:53.459Z,100.00
2023-02-23T20:55:23.835Z,100.00
2023-02-23T20:57:52.276Z,100.00
2023-02-23T21:00:29.997Z,100.00
2023-02-23T21:02:58.744Z,100.00
2023-02-23T21:05:28.529Z,100.00
2023-02-23T21:08:04.131Z,100.00
2023-02-23T21:10:39.690Z,100.00
2023-02-23T21:13:10.715Z,100.00
2023-02-23T21:15:40.162Z,100.00
2023-02-23T21:18:08.255Z,100.00
2023-02-23T21:20:38.028Z,100.00
2023-02-23T21:23:05.511Z,100.00
2023-02-23T21:25:32.857Z,100.00
2023-02-23T21:28:02.768Z,100.00
2023-02-23T21:30:30.124Z,100.00
2023-02-23T21:32:57.861Z,100.00
2023-02-23T21:35:25.244Z,100.00
2023-02-23T21:37:52.732Z,100.00
2023-02-23T21:40:21.281Z,100.00
2023-02-23T21:42:50.237Z,100.00
2023-02-23T21:45:18.653Z,100.00
2023-02-23T21:47:47.156Z,100.00
2023-02-23T21:50:17.649Z,100.00
2023-02-23T21:52:48.656Z,100.00
2023-02-23T21:55:24.449Z,100.00
2023-02-23T21:57:52.243Z,100.00
2023-02-23T22:00:20.959Z,100.00
2023-02-23T22:02:49.419Z,100.00
2023-02-23T22:05:18.870Z,100.00
2023-02-23T22:07:51.765Z,100.00
2023-02-23T22:10:21.639Z,100.00
2023-02-23T22:12:50.340Z,100.00
2023-02-23T22:15:17.649Z,100.00
2023-02-23T22:17:45.038Z,100.00
2023-02-23T22:20:15.771Z,100.00
2023-02-23T22:22:43.277Z,100.00
2023-02-23T22:25:13.285Z,100.00
2023-02-23T22:27:42.744Z,100.00
2023-02-23T22:30:15.041Z,100.00
2023-02-23T22:32:43.596Z,100.00
2023-02-23T22:35:11.109Z,100.00
2023-02-23T22:37:39.059Z,100.00
2023-02-23T22:40:16.700Z,100.00
2023-02-23T22:42:48.380Z,100.00
2023-02-23T22:45:16.393Z,100.00
2023-02-23T22:47:43.706Z,100.00
2023-02-23T22:50:14.011Z,100.00
2023-02-23T22:52:43.156Z,100.00
2023-02-23T22:55:11.212Z,100.00
2023-02-23T22:57:39.968Z,100.00
2023-02-23T23:00:15.151Z,100.00
2023-02-23T23:02:42.499Z,100.00
2023-02-23T23:05:10.046Z,100.00
2023-02-23T23:07:38.765Z,100.00
2023-02-23T23:10:09.479Z,100.00
2023-02-23T23:12:36.985Z,100.00
2023-02-23T23:15:04.470Z,100.00
2023-02-23T23:17:32.997Z,100.00
2023-02-23T23:20:00.414Z,100.00
2023-02-23T23:22:28.135Z,100.00
2023-02-23T23:24:57.070Z,100.00
2023-02-23T23:27:24.843Z,100.00
2023-02-23T23:29:53.297Z,100.00
2023-02-23T23:32:28.512Z,100.00
2023-02-23T23:34:58.505Z,100.00
2023-02-23T23:37:29.388Z,100.00
2023-02-23T23:40:02.069Z,100.00
2023-02-23T23:42:32.018Z,100.00
2023-02-23T23:44:59.189Z,100.00
2023-02-23T23:47:26.811Z,100.00
2023-02-23T23:49:54.671Z,100.00
2023-02-23T23:52:21.864Z,100.00
2023-02-23T23:54:49.277Z,100.00
2023-02-23T23:57:18.248Z,100.00
2023-02-23T23:59:45.780Z,100.00
